Fate, Texas
Current Conditions -  °F | °C
As of 7:35 PM on Wednesday 22 Oct 2014 (Local Time) from KF46 Reporting Station
Clear Clear  
Wind Chill: 71°   Ceiling: Unl
Heat Index: 71°   Visibility: 10mi
Dew Point: 56°   Wind: 7mph
Humidity: 58%   Direction: 120°ESE
Pressure: 30.09"   Gusts: NA
Location:  32.94°N, 96.38°W
Report Text: KF46 230035Z AUTO 12006KT 10SM CLR 22/13 A3009 RMK AO2 T02180132
Loading
Personal Weather Stations






























Interactive Weather Map
Tropical Storm Tracking
New forecast layout! Learn more

10-Day Weather Forecast

Advertisements
Track Severe Weather on mobile